Briefing drone pour Imphy

Rechercher une autre localisation

Conditions de vol :


Nous sommes le : Mercredi 30 septembre 2020
Il est 08:42 UTC (10:42 LT)

Lever de soleil : 05:18 UTC (07:18 LT)
Coucher de soleil : 17:55 UTC (19:55 LT)

Météo

L'essentiel des conditions de vol

VIGILANCE MÉTÉO FRANCE - Nièvre (58)
Pas de vigilances particulieres
CARTES DES FRONTS
METAR de LFQG
LFQG 300830Z AUTO VRB03KT 9999 BKN031 OVC054 14/13 Q1016

Date d'émission: 30/09/2020
Heure d'émission: 08:30 UTC
Vent: Variable 3 KT (6 km/h)
Visibilité horizontale: > 10 km
Plafond :
- Nuages morcelés à 3100ft (945m)
- Couvert à 5400ft (1646m)
Température: 14 °C
Point de rosée: 13 °C
Humidité: 94%
Pression (QNH): 1016 hPa
Prévision 24h pour Nevers (5 km)
Vent : 150° pour 2 KT (8 km/h)
Temperature Maxi: 11 °C
Temperature Min: 11 °C
Humidité : 90%
Condition : Couvert



Warning: count(): Parameter must be an array or an object that implements Countable in /homepages/6/d509196549/htdocs/droneoxygene/briefing.php on line 743
WEBCAM POUR IMPHY

Réglementation

Voler en sécurité

CARTES AERONAUTIQUE 1/500.000
CARTES VAC (LFQG)
SUP AIP




Chargement des AIP...
NOTAM (IMPHY + Terrain à proximité / FIR )




Chargement des NOTAMS...
CONTACT PREFECTURE 58


Avertissement : Les données mises à disposition sont indicatives. Oxygène Drone ne pourra être tenu responsable de dégâts causés aux biens et aux personnes.